This is the latest recevied weather packets stored in our database for station/object DO7CRZ-12. If no packets are shown the sender has not sent any weather packets the latest 10 day(s).
| Time | Temp. | Humidity | Pressure | Rain* | Wind** | Luminosity | Snow |
|---|---|---|---|---|---|---|---|
| 1777634841 | 28.89° C | 22% | 1027.9 hPa | 0 mm | - | 666 W/m² | - |
| 1777634238 | 28.89° C | 22% | 1028.1 hPa | 0 mm | - | 679 W/m² | - |
| 1777633635 | 28.89° C | 23% | 1028.1 hPa | 0 mm | - | 683 W/m² | - |
| 1777633047 | 28.89° C | 23% | 1028.2 hPa | 0 mm | - | 691 W/m² | - |
| 1777632445 | 28.33° C | 25% | 1028.2 hPa | 0 mm | - | 698 W/m² | - |
| 1777631842 | 27.22° C | 21% | 1028.3 hPa | 0 mm | - | 689 W/m² | - |
| 1777631239 | 26.67° C | 21% | 1028.5 hPa | 0 mm | - | 686 W/m² | - |
| 1777630636 | 27.22° C | 20% | 1028.5 hPa | 0 mm | - | 690 W/m² | - |
| 1777629446 | 27.78° C | 21% | 1028.6 hPa | 0 mm | - | 651 W/m² | - |
| 1777628240 | 26.67° C | 22% | 1028.7 hPa | 0 mm | - | 559 W/m² | - |
| 1777627637 | 25.56° C | 23% | 1028.9 hPa | 0 mm | - | 552 W/m² | - |
| 1777626446 | 27.22° C | 21% | 1029 hPa | 0 mm | - | 540 W/m² | - |
| 1777625843 | 26.11° C | 22% | 1028.9 hPa | 0 mm | - | 529 W/m² | - |
| 1777625241 | 26.11° C | 23% | 1028.9 hPa | 0 mm | - | 514 W/m² | - |
| 1777624638 | 25° C | 24% | 1029 hPa | 0 mm | - | 495 W/m² | - |
| 1777624050 | 25.56° C | 24% | 1029 hPa | 0 mm | - | 476 W/m² | - |
| 1777623446 | 23.89° C | 30% | 1029.1 hPa | 0 mm | - | 429 W/m² | - |
| 1777622241 | 15.56° C | 44% | 1029 hPa | 0 mm | - | 57 W/m² | - |
| 1777621638 | 14.44° C | 47% | 1029.1 hPa | 0 mm | - | 32 W/m² | - |
| 1777621035 | 13.89° C | 52% | 1029.1 hPa | 0 mm | - | 31 W/m² | - |
| 1777619844 | 12.78° C | 55% | 1029.1 hPa | 0 mm | - | 28 W/m² | - |
| 1777619241 | 12.78° C | 56% | 1029.1 hPa | 0 mm | - | 27 W/m² | - |
| 1777618638 | 12.22° C | 57% | 1029 hPa | 0 mm | - | 26 W/m² | - |
| 1777618035 | 11.67° C | 58% | 1029 hPa | 0 mm | - | 24 W/m² | - |
| 1777617448 | 11.67° C | 59% | 1029.1 hPa | 0 mm | - | 23 W/m² | - |
* Rain latest hour (hover to see other rain measurements)
** Current wind speed in m/s (hover to see current wind gust speed)